createdAt,value
2018-08-19T00:00:24.942Z,8.90
2018-08-19T00:03:00.572Z,8.30
2018-08-19T00:05:31.029Z,9.13
2018-08-19T00:08:00.819Z,8.17
2018-08-19T00:11:00.604Z,8.10
2018-08-19T00:13:30.366Z,8.43
2018-08-19T00:16:00.129Z,8.13
2018-08-19T00:18:30.044Z,8.63
2018-08-19T00:20:59.993Z,8.80
2018-08-19T00:23:37.567Z,9.20
2018-08-19T00:26:07.496Z,9.43
2018-08-19T00:28:37.172Z,9.53
2018-08-19T00:31:08.628Z,9.80
2018-08-19T00:33:38.409Z,9.53
2018-08-19T00:36:25.117Z,9.10
2018-08-19T00:38:55.889Z,9.63
2018-08-19T00:41:26.121Z,9.43
2018-08-19T00:43:55.878Z,10.03
2018-08-19T00:46:31.840Z,9.93
2018-08-19T00:49:02.134Z,10.57
2018-08-19T00:51:31.780Z,10.40
2018-08-19T00:54:01.537Z,10.67
2018-08-19T00:56:31.300Z,11.23
2018-08-19T00:59:00.953Z,12.37
2018-08-19T01:01:35.995Z,11.93
2018-08-19T01:04:09.801Z,11.97
2018-08-19T01:06:44.665Z,11.47
2018-08-19T01:09:14.682Z,11.63
2018-08-19T01:11:44.867Z,12.77
2018-08-19T01:14:15.944Z,12.13
2018-08-19T01:16:45.733Z,12.27
2018-08-19T01:19:16.892Z,12.03
2018-08-19T01:21:52.173Z,12.57
2018-08-19T01:24:22.868Z,12.63
2018-08-19T01:26:52.518Z,12.17
2018-08-19T01:29:35.108Z,13.33
2018-08-19T01:32:20.406Z,13.23
2018-08-19T01:34:50.059Z,11.67
2018-08-19T01:37:19.930Z,12.57
2018-08-19T01:39:49.519Z,12.83
2018-08-19T01:42:22.062Z,13.47
2018-08-19T01:44:51.620Z,14.17
2018-08-19T01:47:21.200Z,12.90
2018-08-19T01:49:50.981Z,14.27
2018-08-19T01:52:20.761Z,13.73
2018-08-19T01:54:50.478Z,13.60
2018-08-19T01:57:20.202Z,13.93
2018-08-19T01:59:49.768Z,14.47
2018-08-19T02:02:19.371Z,14.43
2018-08-19T02:04:54.398Z,14.10
2018-08-19T02:07:24.537Z,13.70
2018-08-19T02:10:02.796Z,14.47
2018-08-19T02:12:39.619Z,13.40
2018-08-19T02:15:10.537Z,14.27
2018-08-19T02:17:46.022Z,14.03
2018-08-19T02:20:16.066Z,15.43
2018-08-19T02:22:49.896Z,15.60
2018-08-19T02:25:19.628Z,16.80
2018-08-19T02:27:50.548Z,15.10
2018-08-19T02:30:20.396Z,15.60
2018-08-19T02:32:51.119Z,15.33
2018-08-19T02:35:21.040Z,15.80
2018-08-19T02:37:50.868Z,16.00
2018-08-19T02:40:25.821Z,15.97
2018-08-19T02:42:55.645Z,16.53
2018-08-19T02:45:25.712Z,16.13
2018-08-19T02:47:55.704Z,17.27
2018-08-19T02:50:25.295Z,16.87
2018-08-19T02:52:54.959Z,16.50
2018-08-19T02:55:26.414Z,17.00
2018-08-19T02:58:01.164Z,17.17
2018-08-19T03:00:30.760Z,19.30
2018-08-19T03:03:00.382Z,18.10
2018-08-19T03:05:29.960Z,18.70
2018-08-19T03:07:59.526Z,19.00
2018-08-19T03:10:29.381Z,18.87
2018-08-19T03:12:59.110Z,18.90
2018-08-19T03:15:28.661Z,20.50
2018-08-19T03:17:58.304Z,20.70
2018-08-19T03:20:28.164Z,20.90
2018-08-19T03:22:57.893Z,20.07
2018-08-19T03:25:28.089Z,21.23
2018-08-19T03:27:57.994Z,20.67
2018-08-19T03:30:27.888Z,20.10
2018-08-19T03:33:00.546Z,20.57
2018-08-19T03:35:30.287Z,21.10
2018-08-19T03:38:04.673Z,21.63
2018-08-19T03:40:34.162Z,21.93
2018-08-19T03:43:04.107Z,22.13
2018-08-19T03:45:33.808Z,22.20
2018-08-19T03:48:03.456Z,22.03
2018-08-19T03:50:36.667Z,22.70
2018-08-19T03:53:06.890Z,23.30
2018-08-19T03:55:39.303Z,23.63
2018-08-19T03:58:10.515Z,24.20
2018-08-19T04:00:43.841Z,24.03
2018-08-19T04:03:22.064Z,23.77
2018-08-19T04:05:57.304Z,23.63
2018-08-19T04:08:33.757Z,26.77
2018-08-19T04:11:07.441Z,26.33
2018-08-19T04:13:39.629Z,25.40
2018-08-19T04:16:11.168Z,26.73
2018-08-19T04:18:43.193Z,25.83
2018-08-19T04:21:17.668Z,26.30
2018-08-19T04:23:49.688Z,26.13
2018-08-19T04:26:19.707Z,26.57
2018-08-19T04:28:49.296Z,27.30
2018-08-19T04:31:24.265Z,26.27
2018-08-19T04:33:55.019Z,27.50
2018-08-19T04:36:25.325Z,27.17
2018-08-19T04:38:55.412Z,24.60
2018-08-19T04:41:25.092Z,24.60
2018-08-19T04:43:56.044Z,24.30
2018-08-19T04:46:25.757Z,24.07
2018-08-19T04:48:55.615Z,24.20
2018-08-19T04:51:26.459Z,22.40
2018-08-19T04:53:56.231Z,22.93
2018-08-19T04:56:25.943Z,21.73
2018-08-19T04:58:55.826Z,22.80
2018-08-19T05:01:25.444Z,22.63
2018-08-19T05:03:55.499Z,21.07
2018-08-19T05:06:25.839Z,20.80
2018-08-19T05:08:55.624Z,19.90
2018-08-19T05:11:25.299Z,19.37
2018-08-19T05:13:55.211Z,19.03
2018-08-19T05:16:24.950Z,17.47
2018-08-19T05:18:59.613Z,18.93
2018-08-19T05:21:29.394Z,17.20
2018-08-19T05:23:59.190Z,17.50
2018-08-19T05:26:28.923Z,16.17
2018-08-19T05:29:10.768Z,16.57
2018-08-19T05:31:45.271Z,15.20
2018-08-19T05:34:45.784Z,13.90
2018-08-19T05:37:15.489Z,14.43
2018-08-19T05:39:51.231Z,13.10
2018-08-19T05:42:20.892Z,13.23
2018-08-19T05:44:50.549Z,12.60
2018-08-19T05:47:20.331Z,11.90
2018-08-19T05:49:51.334Z,11.57
2018-08-19T05:52:22.352Z,11.67
2018-08-19T05:54:58.226Z,10.80
2018-08-19T05:57:29.780Z,10.33
2018-08-19T06:00:01.007Z,11.00
2018-08-19T06:02:35.945Z,11.10
2018-08-19T06:05:05.882Z,11.37
2018-08-19T06:07:35.838Z,10.47
2018-08-19T06:10:06.251Z,10.47
2018-08-19T06:12:36.048Z,10.50
2018-08-19T06:15:06.547Z,10.70
2018-08-19T06:17:36.296Z,10.33
2018-08-19T06:20:06.498Z,10.40
2018-08-19T06:22:40.821Z,9.93
2018-08-19T06:25:11.857Z,10.33
2018-08-19T06:27:46.515Z,10.27
2018-08-19T06:30:17.045Z,9.50
2018-08-19T06:32:46.974Z,10.27
2018-08-19T06:35:16.768Z,10.70
2018-08-19T06:37:46.488Z,10.10
2018-08-19T06:40:20.904Z,9.63
2018-08-19T06:42:50.563Z,9.68
2018-08-19T06:45:20.392Z,10.10
2018-08-19T06:47:50.116Z,9.20
2018-08-19T06:50:33.627Z,9.25
2018-08-19T06:53:03.386Z,9.40
2018-08-19T06:55:33.100Z,9.20
2018-08-19T06:58:02.893Z,9.45
2018-08-19T07:00:33.265Z,9.43
2018-08-19T07:03:05.780Z,9.68
2018-08-19T07:05:35.656Z,9.10
2018-08-19T07:08:05.374Z,9.68
2018-08-19T07:10:40.197Z,10.03
2018-08-19T07:13:13.007Z,8.73
2018-08-19T07:15:43.852Z,9.20
2018-08-19T07:18:15.280Z,9.43
2018-08-19T07:20:45.563Z,9.33
2018-08-19T07:23:15.273Z,9.58
2018-08-19T07:25:45.828Z,9.45
2018-08-19T07:28:17.366Z,9.35
2018-08-19T07:30:47.394Z,9.40
2018-08-19T07:33:17.003Z,9.35
2018-08-19T07:35:46.647Z,9.40
2018-08-19T07:38:16.989Z,9.00
2018-08-19T07:40:46.714Z,8.68
2018-08-19T07:43:16.357Z,8.95
2018-08-19T07:45:45.984Z,8.45
2018-08-19T07:48:15.779Z,8.45
2018-08-19T07:50:45.473Z,9.43
2018-08-19T07:53:21.815Z,8.78
2018-08-19T07:55:51.432Z,9.85
2018-08-19T07:58:42.704Z,9.53
2018-08-19T08:01:12.465Z,10.07
2018-08-19T08:03:42.116Z,10.30
2018-08-19T08:06:11.831Z,9.87
2018-08-19T08:08:41.580Z,10.33
2018-08-19T08:11:11.491Z,9.57
2018-08-19T08:13:41.445Z,9.73
2018-08-19T08:16:11.252Z,8.80
2018-08-19T08:18:40.885Z,8.60
2018-08-19T08:21:13.668Z,8.20
2018-08-19T08:23:43.647Z,9.03
2018-08-19T08:26:13.400Z,8.50
2018-08-19T08:28:52.647Z,8.90
2018-08-19T08:31:22.348Z,8.10
2018-08-19T08:33:52.110Z,8.60
2018-08-19T08:36:21.756Z,8.10
2018-08-19T08:38:51.491Z,8.67
2018-08-19T08:41:21.157Z,9.10
2018-08-19T08:43:50.825Z,8.10
2018-08-19T08:46:20.479Z,8.20
2018-08-19T08:48:50.180Z,9.00
2018-08-19T08:51:19.990Z,8.30
2018-08-19T08:53:49.660Z,8.50
2018-08-19T08:56:19.398Z,8.90
2018-08-19T08:58:48.996Z,7.63
2018-08-19T09:01:18.658Z,8.67
2018-08-19T09:03:48.258Z,8.63
2018-08-19T09:06:23.186Z,8.50
2018-08-19T09:08:52.822Z,8.60
2018-08-19T09:11:22.401Z,8.37
2018-08-19T09:13:52.212Z,8.07
2018-08-19T09:16:22.003Z,8.40
2018-08-19T09:18:51.786Z,7.77
2018-08-19T09:21:21.453Z,9.40
2018-08-19T09:23:51.296Z,8.90
2018-08-19T09:26:21.005Z,8.67
2018-08-19T09:28:50.647Z,9.30
2018-08-19T09:31:20.327Z,9.43
2018-08-19T09:33:49.940Z,9.50
2018-08-19T09:36:19.662Z,9.63
2018-08-19T09:38:49.331Z,8.77
2018-08-19T09:41:18.942Z,10.20
2018-08-19T09:43:48.581Z,8.07
2018-08-19T09:46:18.256Z,8.47
2018-08-19T09:48:47.919Z,8.73
2018-08-19T09:51:17.493Z,9.07
2018-08-19T09:53:47.303Z,9.23
2018-08-19T09:56:20.537Z,7.87
2018-08-19T09:58:55.423Z,7.73
2018-08-19T10:01:45.165Z,8.50
2018-08-19T10:04:22.855Z,7.80
2018-08-19T10:07:02.622Z,8.37
2018-08-19T10:09:32.172Z,8.13
2018-08-19T10:12:02.091Z,7.90
2018-08-19T10:14:31.777Z,7.87
2018-08-19T10:17:01.643Z,7.53
2018-08-19T10:19:38.090Z,7.67
2018-08-19T10:22:07.757Z,8.17
2018-08-19T10:24:37.503Z,7.40
2018-08-19T10:27:09.528Z,6.60
2018-08-19T10:29:39.540Z,6.90
2018-08-19T10:32:09.562Z,7.47
2018-08-19T10:34:39.536Z,7.03
2018-08-19T10:37:09.458Z,7.08
2018-08-19T10:39:39.179Z,6.97
2018-08-19T10:42:21.967Z,6.90
2018-08-19T10:44:52.934Z,6.92
2018-08-19T10:47:22.733Z,7.00
2018-08-19T10:50:10.303Z,7.40
2018-08-19T10:52:42.033Z,7.95
2018-08-19T10:55:13.312Z,7.92
2018-08-19T10:57:43.328Z,7.90
2018-08-19T11:00:15.978Z,7.30
2018-08-19T11:02:45.568Z,7.10
2018-08-19T11:05:15.626Z,7.60
2018-08-19T11:07:45.299Z,6.03
2018-08-19T11:10:26.817Z,7.65
2018-08-19T11:12:58.269Z,7.47
2018-08-19T11:15:45.486Z,7.37
2018-08-19T11:18:36.285Z,10.10
2018-08-19T11:21:09.851Z,11.33
2018-08-19T11:23:41.744Z,7.70
2018-08-19T11:26:12.443Z,7.70
2018-08-19T11:28:46.028Z,7.50
2018-08-19T11:31:28.180Z,7.80
2018-08-19T11:34:01.853Z,8.63
2018-08-19T11:36:37.857Z,7.50
2018-08-19T11:39:09.616Z,6.83
2018-08-19T11:41:39.360Z,8.30
2018-08-19T11:44:15.581Z,7.33
2018-08-19T11:46:45.290Z,7.10
2018-08-19T11:49:17.904Z,6.97
2018-08-19T11:51:49.731Z,6.60
2018-08-19T11:54:20.335Z,7.63
2018-08-19T11:56:58.879Z,6.73
2018-08-19T11:59:33.990Z,6.30
2018-08-19T12:02:04.120Z,6.87
2018-08-19T12:04:33.929Z,6.60
2018-08-19T12:07:03.757Z,6.97
2018-08-19T12:09:33.556Z,6.93
2018-08-19T12:12:03.663Z,6.57
2018-08-19T12:14:36.231Z,6.70
2018-08-19T12:17:13.286Z,6.80
2018-08-19T12:19:44.482Z,6.57
2018-08-19T12:22:14.203Z,6.60
2018-08-19T12:24:46.725Z,6.57
2018-08-19T12:27:19.830Z,7.10
2018-08-19T12:29:49.599Z,6.70
2018-08-19T12:32:27.882Z,7.07
2018-08-19T12:35:01.594Z,6.70
2018-08-19T12:37:32.576Z,6.37
2018-08-19T12:40:02.318Z,7.10
2018-08-19T12:42:37.545Z,7.20
2018-08-19T12:45:08.409Z,6.53
2018-08-19T12:47:38.256Z,6.17
2018-08-19T12:50:13.577Z,6.50
2018-08-19T12:52:43.405Z,6.67
2018-08-19T12:55:16.507Z,6.50
2018-08-19T12:57:47.952Z,6.50
2018-08-19T13:00:23.909Z,6.13
2018-08-19T13:02:53.836Z,6.10
2018-08-19T13:05:23.880Z,6.70
2018-08-19T13:07:53.674Z,6.07
2018-08-19T13:10:23.832Z,6.20
2018-08-19T13:12:59.516Z,6.50
2018-08-19T13:15:30.917Z,6.60
2018-08-19T13:18:00.850Z,6.43
2018-08-19T13:20:30.587Z,6.43
2018-08-19T13:23:02.504Z,6.43
2018-08-19T13:25:32.584Z,6.77
2018-08-19T13:28:02.527Z,6.40
2018-08-19T13:30:32.472Z,6.03
2018-08-19T13:33:02.251Z,6.87
2018-08-19T13:35:32.129Z,6.73
2018-08-19T13:38:01.777Z,6.63
2018-08-19T13:40:38.245Z,6.97
2018-08-19T13:43:07.922Z,6.60
2018-08-19T13:45:37.696Z,6.83
2018-08-19T13:48:07.338Z,7.07
2018-08-19T13:50:37.120Z,6.83
2018-08-19T13:53:06.890Z,7.47
2018-08-19T13:55:37.220Z,6.47
2018-08-19T13:58:06.874Z,8.00
2018-08-19T14:00:36.915Z,6.60
2018-08-19T14:03:06.754Z,6.47
2018-08-19T14:05:36.878Z,6.80
2018-08-19T14:08:06.799Z,7.47
2018-08-19T14:10:36.840Z,7.27
2018-08-19T14:13:06.666Z,7.47
2018-08-19T14:15:36.580Z,7.20
2018-08-19T14:18:06.991Z,7.53
2018-08-19T14:20:37.129Z,7.87
2018-08-19T14:23:06.773Z,7.27
2018-08-19T14:25:36.811Z,6.80
2018-08-19T14:28:06.741Z,7.60
2018-08-19T14:30:37.365Z,7.57
2018-08-19T14:33:07.622Z,7.40
2018-08-19T14:35:38.804Z,6.93
2018-08-19T14:38:08.835Z,6.63
2018-08-19T14:40:39.247Z,7.13
2018-08-19T14:43:08.908Z,7.17
2018-08-19T14:45:39.482Z,7.17
2018-08-19T14:48:09.644Z,6.70
2018-08-19T14:50:42.308Z,7.20
2018-08-19T14:53:12.121Z,7.33
2018-08-19T14:55:42.288Z,7.10
2018-08-19T14:58:12.160Z,7.57
2018-08-19T15:00:42.966Z,7.60
2018-08-19T15:03:12.685Z,7.07
2018-08-19T15:05:48.356Z,7.43
2018-08-19T15:08:19.574Z,7.40
2018-08-19T15:10:53.573Z,7.17
2018-08-19T15:13:23.536Z,7.93
2018-08-19T15:15:53.433Z,7.17
2018-08-19T15:18:23.085Z,7.70
2018-08-19T15:20:52.794Z,7.73
2018-08-19T15:23:22.720Z,7.70
2018-08-19T15:25:52.423Z,7.40
2018-08-19T15:28:22.099Z,7.23
2018-08-19T15:30:51.816Z,7.20
2018-08-19T15:33:22.784Z,7.77
2018-08-19T15:35:52.423Z,8.00
2018-08-19T15:38:22.117Z,7.87
2018-08-19T15:40:51.816Z,8.13
2018-08-19T15:43:21.385Z,7.80
2018-08-19T15:45:50.997Z,7.97
2018-08-19T15:48:20.896Z,7.70
2018-08-19T15:50:57.436Z,7.93
2018-08-19T15:53:27.264Z,8.40
2018-08-19T15:55:57.044Z,8.87
2018-08-19T15:58:28.749Z,10.17
2018-08-19T16:00:58.386Z,8.33
2018-08-19T16:03:28.019Z,8.73
2018-08-19T16:05:58.375Z,8.87
2018-08-19T16:08:28.037Z,7.80
2018-08-19T16:10:57.599Z,8.13
2018-08-19T16:13:27.386Z,7.93
2018-08-19T16:15:57.016Z,7.67
2018-08-19T16:18:26.653Z,6.90
2018-08-19T16:21:01.518Z,6.60
2018-08-19T16:23:31.329Z,6.50
2018-08-19T16:26:01.215Z,6.50
2018-08-19T16:28:30.866Z,6.70
2018-08-19T16:31:00.509Z,6.30
2018-08-19T16:33:30.495Z,6.70
2018-08-19T16:36:00.143Z,8.03
2018-08-19T16:38:29.731Z,6.57
2018-08-19T16:40:59.448Z,5.93
2018-08-19T16:43:29.067Z,6.87
2018-08-19T16:45:58.760Z,6.20
2018-08-19T16:48:28.565Z,6.10
2018-08-19T16:50:58.291Z,6.57
2018-08-19T16:53:28.030Z,6.47
2018-08-19T16:55:57.855Z,6.00
2018-08-19T16:58:27.616Z,6.43
2018-08-19T17:00:57.313Z,6.87
2018-08-19T17:03:37.715Z,6.90
2018-08-19T17:06:14.522Z,7.47
2018-08-19T17:08:44.508Z,8.33
2018-08-19T17:11:15.511Z,6.27
2018-08-19T17:13:45.426Z,7.30
2018-08-19T17:16:15.062Z,5.73
2018-08-19T17:18:44.691Z,5.80
2018-08-19T17:21:14.567Z,5.67
2018-08-19T17:23:48.360Z,6.17
2018-08-19T17:26:21.160Z,5.80
2018-08-19T17:28:51.515Z,6.30
2018-08-19T17:31:21.559Z,6.50
2018-08-19T17:33:51.546Z,7.70
2018-08-19T17:46:16.511Z,7.30
2018-08-19T17:48:46.331Z,6.77
2018-08-19T17:51:31.965Z,6.93
2018-08-19T17:54:01.896Z,7.50
2018-08-19T17:56:31.595Z,7.10
2018-08-19T17:59:01.812Z,6.90
2018-08-19T18:01:31.582Z,7.00
2018-08-19T18:04:01.359Z,6.80
2018-08-19T18:06:30.998Z,6.93
2018-08-19T18:09:00.812Z,6.90
2018-08-19T18:11:30.496Z,6.73
2018-08-19T18:14:00.420Z,6.63
2018-08-19T18:16:30.271Z,6.67
2018-08-19T18:19:01.470Z,7.20
2018-08-19T18:21:35.767Z,6.80
2018-08-19T18:24:07.397Z,6.97
2018-08-19T18:26:37.240Z,7.85
2018-08-19T18:29:06.921Z,7.13
2018-08-19T18:31:37.142Z,7.33
2018-08-19T18:34:10.011Z,8.30
2018-08-19T18:36:40.115Z,7.60
2018-08-19T18:39:12.132Z,7.73
2018-08-19T18:41:46.597Z,7.13
2018-08-19T18:44:16.510Z,8.20
2018-08-19T18:46:46.396Z,7.00
2018-08-19T18:49:16.263Z,7.90
2018-08-19T18:51:48.176Z,8.17
2018-08-19T18:54:25.075Z,7.70
2018-08-19T18:56:54.741Z,7.83
2018-08-19T18:59:24.369Z,8.10
2018-08-19T19:01:59.111Z,8.00
2018-08-19T19:04:29.111Z,8.73
2018-08-19T19:06:59.241Z,9.20
2018-08-19T19:09:42.145Z,8.13
2018-08-19T19:12:12.379Z,8.83
2018-08-19T19:14:42.321Z,8.73
2018-08-19T19:17:12.493Z,8.60
2018-08-19T19:19:47.967Z,9.13
2018-08-19T19:22:17.866Z,8.83
2018-08-19T19:24:48.160Z,8.83
2018-08-19T19:27:18.194Z,8.90
2018-08-19T19:29:52.313Z,7.67
2018-08-19T19:32:25.664Z,8.43
2018-08-19T19:34:55.372Z,8.70
2018-08-19T19:37:25.323Z,9.30
2018-08-19T19:40:00.293Z,8.97
2018-08-19T19:42:30.068Z,8.57
2018-08-19T19:45:00.446Z,8.90
2018-08-19T19:47:30.202Z,8.33
2018-08-19T19:50:00.480Z,9.03
2018-08-19T19:52:30.468Z,9.60
2018-08-19T19:55:00.356Z,10.40
2018-08-19T19:57:30.150Z,9.40
2018-08-19T19:59:59.928Z,9.60
2018-08-19T20:02:31.594Z,9.00
2018-08-19T20:05:09.073Z,9.13
2018-08-19T20:07:38.847Z,9.10
2018-08-19T20:10:13.205Z,9.17
2018-08-19T20:12:43.041Z,9.23
2018-08-19T20:15:12.740Z,8.90
2018-08-19T20:17:42.423Z,9.17
2018-08-19T20:20:12.100Z,9.23
2018-08-19T20:22:42.025Z,8.77
2018-08-19T20:25:11.693Z,9.30
2018-08-19T20:27:41.897Z,9.37
2018-08-19T20:30:11.964Z,9.53
2018-08-19T20:32:41.774Z,10.00
2018-08-19T20:35:11.656Z,10.33
2018-08-19T20:37:41.484Z,10.00
2018-08-19T20:40:11.406Z,10.10
2018-08-19T20:42:41.080Z,11.10
2018-08-19T20:45:10.847Z,10.70
2018-08-19T20:47:41.375Z,10.83
2018-08-19T20:50:11.076Z,10.13
2018-08-19T20:52:45.723Z,10.00
2018-08-19T20:55:16.036Z,10.37
2018-08-19T20:57:46.662Z,9.93
2018-08-19T21:00:16.600Z,9.23
2018-08-19T21:02:46.362Z,10.37
2018-08-19T21:05:16.101Z,10.03
2018-08-19T21:07:45.936Z,9.23
2018-08-19T21:10:15.733Z,9.43
2018-08-19T21:12:45.511Z,9.73
2018-08-19T21:15:22.480Z,9.90
2018-08-19T21:17:52.398Z,10.27
2018-08-19T21:20:22.273Z,10.60
2018-08-19T21:22:53.348Z,11.77
2018-08-19T21:25:23.047Z,11.60
2018-08-19T21:27:53.003Z,10.70
2018-08-19T21:30:23.424Z,10.00
2018-08-19T21:32:53.906Z,10.30
2018-08-19T21:35:24.108Z,10.43
2018-08-19T21:37:53.725Z,10.37
2018-08-19T21:40:28.511Z,9.67
2018-08-19T21:42:58.668Z,13.57
2018-08-19T21:45:28.285Z,12.10
2018-08-19T21:47:57.921Z,11.70
2018-08-19T21:50:27.550Z,10.73
2018-08-19T21:53:02.232Z,10.53
2018-08-19T21:55:34.080Z,11.07
2018-08-19T21:58:04.198Z,10.40
2018-08-19T22:00:42.013Z,11.23
2018-08-19T22:03:22.007Z,10.53
2018-08-19T22:05:53.072Z,10.37
2018-08-19T22:08:24.273Z,11.40
2018-08-19T22:10:54.131Z,11.23
2018-08-19T22:13:23.782Z,11.03
2018-08-19T22:15:53.472Z,11.13
2018-08-19T22:18:24.015Z,10.43
2018-08-19T22:21:09.332Z,10.83
2018-08-19T22:23:48.630Z,11.53
2018-08-19T22:26:19.332Z,10.80
2018-08-19T22:29:08.461Z,10.93
2018-08-19T22:31:38.042Z,10.77
2018-08-19T22:34:07.760Z,10.80
2018-08-19T22:36:37.448Z,11.03
2018-08-19T22:39:09.046Z,11.57
2018-08-19T22:41:38.718Z,10.70
2018-08-19T22:44:08.371Z,11.07
2018-08-19T22:46:38.000Z,11.20
2018-08-19T22:49:07.579Z,11.00
2018-08-19T22:51:37.209Z,11.87
2018-08-19T22:54:06.934Z,10.57
2018-08-19T22:56:36.499Z,11.03
2018-08-19T22:59:06.215Z,10.67
2018-08-19T23:01:40.958Z,11.13
2018-08-19T23:04:10.588Z,11.17
2018-08-19T23:06:40.223Z,10.63
2018-08-19T23:09:09.957Z,11.80
2018-08-19T23:11:44.719Z,10.70
2018-08-19T23:14:31.090Z,11.23
2018-08-19T23:17:00.784Z,10.73
2018-08-19T23:19:30.388Z,11.67
2018-08-19T23:22:00.074Z,11.50
2018-08-19T23:24:29.712Z,11.87
2018-08-19T23:26:59.476Z,10.67
2018-08-19T23:29:29.120Z,11.07
2018-08-19T23:31:58.742Z,10.87
2018-08-19T23:34:28.436Z,12.17
2018-08-19T23:36:58.282Z,11.87
2018-08-19T23:39:27.874Z,11.67
2018-08-19T23:41:57.524Z,11.40
2018-08-19T23:44:27.194Z,11.50
2018-08-19T23:46:56.824Z,11.67
2018-08-19T23:49:26.442Z,10.80
2018-08-19T23:51:56.087Z,12.37
2018-08-19T23:54:25.722Z,12.00
2018-08-19T23:56:55.369Z,10.83
2018-08-19T23:59:31.927Z,11.63
